Time;durP1;ratioP1;P1;durP2;ratioP2;P2;SDS_P1;SDS_P2;PMS_P1;PMS_P2;Temp;Humidity;BMP_temperature;BMP_pressure;BME280_temperature;BME280_humidity;BME280_pressure;Samples;Min_cycle;Max_cycle;Signal;HPM_P1;HPM_P2
2022/02/21 00:01:52;;;;;;;1.98;0.40;;;;;;;6.68;100.00;98058.25;5072537;28;20055;-79
2022/02/21 00:04:55;;;;;;;0.20;0.20;;;;;;;6.70;100.00;98041.91;5072100;28;20052;-78
2022/02/21 00:07:58;;;;;;;0.20;0.10;;;;;;;6.75;100.00;98068.84;5099340;28;20047;-78
2022/02/21 00:11:02;;;;;;;0.63;0.47;;;;;;;6.80;100.00;98059.81;5111696;28;20050;-79
2022/02/21 00:14:05;;;;;;;5.55;0.73;;;;;;;6.82;100.00;98068.41;5111739;28;20496;-79
2022/02/21 00:17:09;;;;;;;1.20;0.43;;;;;;;6.85;100.00;98072.94;5112375;28;20054;-79
2022/02/21 00:20:13;;;;;;;0.32;0.30;;;;;;;6.91;100.00;98087.56;5111805;28;20051;-78
2022/02/21 00:23:16;;;;;;;0.30;0.30;;;;;;;6.95;100.00;98112.25;5111394;28;20050;-78
2022/02/21 00:26:19;;;;;;;0.10;0.10;;;;;;;6.98;100.00;98114.78;5103976;28;20059;-78
2022/02/21 00:29:23;;;;;;;3.80;0.52;;;;;;;6.98;100.00;98125.84;5090763;28;20047;-78
2022/02/21 00:32:26;;;;;;;0.43;0.43;;;;;;;6.99;100.00;98116.31;5091831;28;20055;-79
2022/02/21 00:35:29;;;;;;;0.50;0.25;;;;;;;6.99;100.00;98143.97;5091415;28;20437;-78
2022/02/21 00:38:33;;;;;;;0.52;0.50;;;;;;;6.99;100.00;98149.50;5109401;28;20553;-78
2022/02/21 00:41:37;;;;;;;2.95;1.20;;;;;;;7.03;100.00;98141.75;5071313;28;20402;-79
2022/02/21 00:44:41;;;;;;;0.30;0.30;;;;;;;7.07;100.00;98150.56;5071371;28;20067;-79
2022/02/21 00:47:45;;;;;;;0.55;0.50;;;;;;;7.03;100.00;98138.22;5095557;28;20417;-78
2022/02/21 00:50:48;;;;;;;2.38;0.70;;;;;;;6.88;100.00;98143.91;5110822;28;20051;-79
2022/02/21 00:53:51;;;;;;;0.35;0.35;;;;;;;6.87;100.00;98145.13;5111234;28;20046;-79
2022/02/21 00:56:55;;;;;;;15.73;0.40;;;;;;;6.88;100.00;98143.91;5098281;28;20398;-78
2022/02/21 00:59:58;;;;;;;2.05;1.17;;;;;;;6.80;100.00;98145.56;5090405;28;20055;-79
2022/02/21 01:03:02;;;;;;;3.50;0.65;;;;;;;6.87;100.00;98153.44;5090595;28;20051;-78
2022/02/21 01:06:05;;;;;;;0.73;0.20;;;;;;;6.89;100.00;98153.69;5089756;28;20055;-79
2022/02/21 01:09:09;;;;;;;0.20;0.20;;;;;;;6.87;100.00;98158.97;5090820;28;20641;-79
2022/02/21 01:12:14;;;;;;;0.30;0.22;;;;;;;6.89;100.00;98146.16;5089528;28;20051;-78
2022/02/21 01:15:17;;;;;;;5.03;0.30;;;;;;;6.93;100.00;98157.00;5090968;28;20063;-79
2022/02/21 01:18:21;;;;;;;5.88;0.40;;;;;;;6.85;100.00;98144.88;5108144;28;20051;-78
2022/02/21 01:21:25;;;;;;;0.15;0.15;;;;;;;6.85;100.00;98142.88;5110344;28;20503;-78
2022/02/21 01:24:30;;;;;;;0.10;0.10;;;;;;;6.88;100.00;98163.25;5110955;28;20054;-79
2022/02/21 01:27:34;;;;;;;0.32;0.28;;;;;;;6.95;100.00;98153.75;5100848;28;20047;-78
2022/02/21 01:30:38;;;;;;;0.45;0.32;;;;;;;6.93;100.00;98151.47;5111022;28;20051;-78
2022/02/21 01:33:41;;;;;;;5.68;0.82;;;;;;;6.92;100.00;98138.88;5111898;28;20051;-79
2022/02/21 01:36:45;;;;;;;1.10;0.65;;;;;;;6.93;100.00;98134.13;5111099;28;20046;-78
2022/02/21 01:39:48;;;;;;;0.10;0.10;;;;;;;6.87;100.00;98125.75;5103828;28;20055;-78
2022/02/21 01:42:52;;;;;;;0.20;0.20;;;;;;;6.93;100.00;98123.06;5089569;28;20757;-78
2022/02/21 01:45:56;;;;;;;1.15;1.05;;;;;;;6.93;100.00;98123.06;5090760;28;20067;-79
2022/02/21 01:48:59;;;;;;;0.75;0.65;;;;;;;6.93;100.00;98118.25;5089784;28;20055;-78
2022/02/21 01:52:04;;;;;;;0.20;0.20;;;;;;;6.87;100.00;98125.75;5090132;28;20051;-79
2022/02/21 01:55:08;;;;;;;0.20;0.20;;;;;;;6.80;100.00;98104.06;5088964;28;20047;-78
2022/02/21 01:58:13;;;;;;;0.40;0.40;;;;;;;6.77;100.00;98102.31;5105141;28;20070;-77
2022/02/21 02:01:17;;;;;;;0.50;0.47;;;;;;;6.75;100.00;98110.34;5110468;28;20500;-78
2022/02/21 02:04:20;;;;;;;17.17;1.30;;;;;;;6.72;100.00;98120.38;5110435;28;20050;-78
2022/02/21 02:07:24;;;;;;;2.63;0.85;;;;;;;6.81;100.00;98108.38;5093873;28;20051;-78
2022/02/21 02:10:28;;;;;;;0.50;0.50;;;;;;;6.75;100.00;98102.81;5069812;28;20072;-78
2022/02/21 02:13:32;;;;;;;0.13;0.13;;;;;;;6.79;100.00;98108.09;5068761;28;20062;-79
2022/02/21 02:16:36;;;;;;;0.45;0.40;;;;;;;6.86;100.00;98118.72;5073542;28;20135;-79
2022/02/21 02:19:41;;;;;;;0.43;0.43;;;;;;;6.83;100.00;98108.63;5109867;28;20059;-78
2022/02/21 02:22:46;;;;;;;7.05;0.90;;;;;;;6.86;100.00;98096.59;5109091;28;20047;-78
2022/02/21 02:25:49;;;;;;;9.32;1.88;;;;;;;6.92;100.00;98099.38;5109702;28;20067;-78
2022/02/21 02:28:54;;;;;;;1.50;1.00;;;;;;;6.94;100.00;98063.69;5109963;28;20055;-78
2022/02/21 02:31:57;;;;;;;17.10;0.63;;;;;;;7.02;100.00;98067.53;5109838;28;20051;-78
2022/02/21 02:35:01;;;;;;;0.13;0.13;;;;;;;7.04;100.00;98073.31;5109845;28;20122;-78
2022/02/21 02:38:04;;;;;;;0.85;0.65;;;;;;;7.10;100.00;98072.09;5108562;28;20046;-79
2022/02/21 02:41:09;;;;;;;2.28;0.38;;;;;;;7.08;100.00;98046.91;5109634;28;20046;-78
2022/02/21 02:44:13;;;;;;;0.20;0.20;;;;;;;7.08;100.00;98044.13;5109168;28;20054;-78
2022/02/21 02:47:16;;;;;;;0.50;0.30;;;;;;;7.04;100.00;98043.59;5109498;28;20054;-78
2022/02/21 02:50:20;;;;;;;0.10;0.10;;;;;;;7.09;100.00;98042.88;5108167;28;20054;-78
2022/02/21 02:53:23;;;;;;;7.65;0.75;;;;;;;7.07;100.00;98017.72;5108223;28;20492;-78
2022/02/21 02:56:27;;;;;;;1.60;0.52;;;;;;;7.07;100.00;98020.50;5109217;28;20051;-78
2022/02/21 02:59:30;;;;;;;9.77;0.80;;;;;;;7.11;100.00;98009.16;5109149;28;20063;-78
2022/02/21 03:02:34;;;;;;;0.30;0.30;;;;;;;7.13;100.00;98004.66;5109284;28;20047;-78
2022/02/21 03:05:37;;;;;;;0.63;0.63;;;;;;;7.11;100.00;98017.47;5108667;28;20047;-79
2022/02/21 03:08:40;;;;;;;0.30;0.30;;;;;;;7.12;100.00;97986.56;5107451;28;20284;-78
2022/02/21 03:11:44;;;;;;;1.30;0.40;;;;;;;7.07;100.00;97997.59;5108572;28;20051;-78
2022/02/21 03:14:47;;;;;;;0.10;0.10;;;;;;;6.97;100.00;97982.44;5109450;28;20659;-79
2022/02/21 03:17:50;;;;;;;1.23;0.50;;;;;;;6.89;100.00;97973.84;5109197;28;20051;-78
2022/02/21 03:20:54;;;;;;;0.10;0.10;;;;;;;6.92;100.00;97961.81;5109435;28;20047;-78
2022/02/21 03:23:57;;;;;;;4.80;0.90;;;;;;;6.96;100.00;97962.31;5108061;28;20047;-78
2022/02/21 03:27:00;;;;;;;20.92;0.95;;;;;;;6.98;100.00;97954.28;5108475;28;20420;-78
2022/02/21 03:30:05;;;;;;;0.40;0.30;;;;;;;6.99;100.00;97953.03;5088184;28;20699;-78
2022/02/21 03:33:08;;;;;;;0.10;0.10;;;;;;;7.02;100.00;97949.25;5088520;28;20063;-78
2022/02/21 03:36:12;;;;;;;0.68;0.20;;;;;;;7.13;100.00;97954.06;5087651;28;20678;-78
2022/02/21 03:39:15;;;;;;;8.20;0.43;;;;;;;7.21;100.00;97944.06;5073944;28;20092;-78
2022/02/21 03:42:18;;;;;;;14.70;0.55;;;;;;;7.26;100.00;97934.97;5092638;28;20401;-78
2022/02/21 03:45:22;;;;;;;1.55;0.68;;;;;;;7.27;100.00;97926.19;5091684;28;20054;-78
2022/02/21 03:48:26;;;;;;;0.75;0.65;;;;;;;7.24;100.00;97910.56;5091561;28;20126;-78
2022/02/21 03:51:29;;;;;;;0.57;0.43;;;;;;;7.20;100.00;97907.31;5092873;28;20687;-79
2022/02/21 03:54:32;;;;;;;3.10;1.17;;;;;;;7.20;100.00;97918.38;5092476;28;20051;-79
2022/02/21 03:57:36;;;;;;;0.15;0.15;;;;;;;7.17;100.00;97908.28;5102661;28;20066;-79
2022/02/21 04:00:40;;;;;;;4.03;0.50;;;;;;;7.14;100.00;97923.16;5112142;28;20409;-78
2022/02/21 04:03:43;;;;;;;0.17;0.13;;;;;;;7.14;100.00;97911.31;5111934;28;20694;-79
2022/02/21 04:06:46;;;;;;;0.10;0.10;;;;;;;7.11;100.00;97902.00;5111750;28;20063;-79
2022/02/21 04:09:50;;;;;;;0.57;0.57;;;;;;;7.17;100.00;97891.69;5112181;28;20138;-80
2022/02/21 04:12:53;;;;;;;12.00;0.95;;;;;;;7.24;100.00;97884.91;5112562;28;20070;-79
2022/02/21 04:15:58;;;;;;;2.35;0.57;;;;;;;7.23;100.00;97906.31;5112715;28;20055;-79
2022/02/21 04:19:02;;;;;;;1.08;0.30;;;;;;;7.28;100.00;97900.00;5113297;28;20042;-79
2022/02/21 04:22:10;;;;;;;1.48;0.57;;;;;;;7.29;100.00;97884.16;5112360;28;20052;-79
2022/02/21 04:25:15;;;;;;;2.28;0.82;;;;;;;7.42;100.00;97874.13;5113011;28;20043;-79
2022/02/21 04:28:18;;;;;;;0.82;0.63;;;;;;;7.45;100.00;97877.91;5112633;28;20055;-79
2022/02/21 04:31:22;;;;;;;0.45;0.32;;;;;;;7.51;100.00;97857.22;5111402;28;20074;-79
2022/02/21 04:34:25;;;;;;;1.85;0.77;;;;;;;7.58;100.00;97862.28;5111785;28;20054;-78
2022/02/21 04:37:28;;;;;;;0.10;0.10;;;;;;;7.67;100.00;97852.97;5111122;28;20058;-79
2022/02/21 04:40:32;;;;;;;0.38;0.10;;;;;;;7.73;100.00;97850.97;5098208;28;20051;-78
2022/02/21 04:43:35;;;;;;;0.17;0.17;;;;;;;7.81;100.00;97845.66;5090628;28;20051;-79
2022/02/21 04:46:38;;;;;;;0.13;0.13;;;;;;;7.84;100.00;97862.00;5089580;28;20051;-79
2022/02/21 04:49:42;;;;;;;0.38;0.38;;;;;;;7.86;100.00;97842.13;5090864;28;20043;-79
2022/02/21 04:52:45;;;;;;;1.10;0.80;;;;;;;7.87;100.00;97840.84;5091429;28;20413;-79
2022/02/21 04:55:48;;;;;;;5.65;1.15;;;;;;;7.97;100.00;97833.81;5091384;28;20066;-79
2022/02/21 04:58:52;;;;;;;0.75;0.45;;;;;;;8.08;100.00;97828.22;5091336;28;20402;-79
2022/02/21 05:01:55;;;;;;;0.13;0.13;;;;;;;8.10;100.00;97845.13;5090740;28;20051;-79
2022/02/21 05:04:59;;;;;;;12.27;1.38;;;;;;;8.22;100.00;97825.16;5091440;28;20058;-78
2022/02/21 05:08:02;;;;;;;4.90;0.40;;;;;;;8.29;100.00;97829.47;5104904;28;20046;-78
2022/02/21 05:11:06;;;;;;;0.10;0.10;;;;;;;8.37;100.00;97847.84;5111235;28;20405;-79
2022/02/21 05:14:09;;;;;;;0.10;0.10;;;;;;;8.39;100.00;97836.22;5110428;28;20051;-79
2022/02/21 05:17:12;;;;;;;0.20;0.10;;;;;;;8.48;100.00;97835.94;5111338;28;20457;-79
2022/02/21 05:20:16;;;;;;;5.40;0.57;;;;;;;8.59;100.00;97837.91;5111353;28;20121;-79
2022/02/21 05:23:19;;;;;;;6.03;0.30;;;;;;;8.69;100.00;97839.88;5110769;28;20389;-78
2022/02/21 05:26:23;;;;;;;1.20;0.50;;;;;;;8.69;100.00;97828.78;5110605;28;20527;-78
2022/02/21 05:29:27;;;;;;;3.00;0.95;;;;;;;8.76;100.00;97842.13;5110325;28;20043;-79
2022/02/21 05:32:30;;;;;;;0.10;0.10;;;;;;;8.78;100.00;97836.81;5090002;28;20387;-79
2022/02/21 05:35:33;;;;;;;1.65;0.30;;;;;;;8.85;100.00;97827.94;5090570;28;20058;-78
2022/02/21 05:38:37;;;;;;;0.20;0.10;;;;;;;9.00;100.00;97802.63;5110456;28;20054;-79
2022/02/21 05:41:40;;;;;;;6.95;0.50;;;;;;;9.21;100.00;97816.84;5069884;28;20059;-79
2022/02/21 05:44:44;;;;;;;3.58;0.40;;;;;;;9.27;100.00;97859.25;5070582;28;20055;-79
2022/02/21 05:47:48;;;;;;;0.10;0.10;;;;;;;9.35;100.00;97858.19;5095248;28;20074;-79
2022/02/21 05:50:51;;;;;;;16.15;0.45;;;;;;;9.34;100.00;97847.56;5110252;28;20402;-79
2022/02/21 05:53:54;;;;;;;0.20;0.20;;;;;;;9.52;100.00;97852.50;5109658;28;20055;-79
2022/02/21 05:56:58;;;;;;;0.85;0.28;;;;;;;9.60;100.00;97806.19;5109164;28;20066;-79
2022/02/21 06:00:05;;;;;;;3.00;0.52;;;;;;;9.68;100.00;97843.28;5110087;28;20055;-79
2022/02/21 06:03:09;;;;;;;1.30;0.43;;;;;;;9.63;100.00;97836.50;5110000;28;20066;-79
2022/02/21 06:06:12;;;;;;;0.75;0.75;;;;;;;9.56;100.00;97858.53;5110311;28;20055;-79
2022/02/21 06:09:16;;;;;;;0.75;0.30;;;;;;;9.57;100.00;97832.25;5109315;28;20066;-78
2022/02/21 06:12:20;;;;;;;7.65;0.70;;;;;;;9.55;100.00;97857.75;5109287;28;20520;-78
2022/02/21 06:15:23;;;;;;;0.10;0.10;;;;;;;9.61;100.00;97846.63;5110531;28;20051;-79
2022/02/21 06:18:27;;;;;;;9.95;2.38;;;;;;;9.64;100.00;97815.00;5109433;28;20050;-79
2022/02/21 06:21:30;;;;;;;2.22;0.80;;;;;;;9.62;100.00;97825.88;5109524;28;20058;-79
2022/02/21 06:24:33;;;;;;;6.03;0.65;;;;;;;9.66;100.00;97834.69;5108952;28;20065;-78
2022/02/21 06:27:37;;;;;;;0.35;0.10;;;;;;;9.65;100.00;97855.44;5110342;28;20058;-79
2022/02/21 06:30:41;;;;;;;3.03;1.00;;;;;;;9.65;100.00;97899.91;5109764;28;20054;-78
2022/02/21 06:33:45;;;;;;;0.28;0.28;;;;;;;9.69;100.00;97822.53;5109474;28;20401;-79
2022/02/21 06:36:48;;;;;;;5.00;1.48;;;;;;;9.75;100.00;97837.13;5108643;28;20051;-79
2022/02/21 06:39:52;;;;;;;1.25;0.47;;;;;;;9.77;100.00;97848.50;5109881;28;20125;-80
2022/02/21 06:42:55;;;;;;;3.38;0.73;;;;;;;9.77;100.00;97829.03;5109634;28;20254;-79
2022/02/21 06:45:59;;;;;;;1.17;0.60;;;;;;;9.78;100.00;97880.59;5109714;28;20051;-79
2022/02/21 06:49:02;;;;;;;10.90;1.33;;;;;;;9.76;100.00;97874.78;5108827;28;20054;-79
2022/02/21 06:52:06;;;;;;;2.33;0.40;;;;;;;9.68;100.00;97884.97;5109223;28;20129;-78
2022/02/21 06:55:12;;;;;;;2.33;0.35;;;;;;;9.82;100.00;97892.19;5109553;28;20054;-78
2022/02/21 06:58:16;;;;;;;5.10;0.63;;;;;;;9.85;100.00;97863.34;5108654;28;20059;-78
2022/02/21 07:01:19;;;;;;;0.95;0.70;;;;;;;9.86;100.00;97873.19;5108958;28;20051;-78
2022/02/21 07:04:22;;;;;;;5.68;0.70;;;;;;;9.93;100.00;97892.84;5108940;28;20416;-79
2022/02/21 07:07:26;;;;;;;0.98;0.75;;;;;;;9.92;100.00;97882.97;5109655;28;20060;-78
2022/02/21 07:10:29;;;;;;;1.05;0.80;;;;;;;9.89;100.00;97897.19;5109139;28;20440;-78
2022/02/21 07:13:32;;;;;;;4.47;1.13;;;;;;;9.90;100.00;97887.56;5108367;28;20062;-78
2022/02/21 07:16:36;;;;;;;15.32;1.83;;;;;;;10.08;100.00;97881.34;5109374;28;20054;-78
2022/02/21 07:19:40;;;;;;;1.08;0.55;;;;;;;10.06;100.00;97917.25;5109350;28;20054;-77
2022/02/21 07:22:45;;;;;;;0.82;0.73;;;;;;;10.02;100.00;97905.66;5109382;28;20484;-78
2022/02/21 07:25:49;;;;;;;1.55;0.90;;;;;;;10.12;100.00;97920.00;5109142;28;20059;-78
2022/02/21 07:28:52;;;;;;;6.95;0.22;;;;;;;10.06;100.00;97925.59;5108965;28;20058;-78
2022/02/21 07:31:55;;;;;;;4.53;0.82;;;;;;;9.98;100.00;97894.06;5093874;28;20055;-78
2022/02/21 07:34:59;;;;;;;7.90;1.13;;;;;;;10.02;100.00;97939.03;5097872;28;21225;-80
2022/02/21 07:38:02;;;;;;;2.58;0.50;;;;;;;9.88;100.00;97870.63;5092444;28;20055;-78
2022/02/21 07:41:05;;;;;;;0.63;0.35;;;;;;;9.87;100.00;97938.66;5101199;28;20449;-78
2022/02/21 07:44:09;;;;;;;8.10;0.40;;;;;;;9.86;100.00;97945.47;5109160;28;20508;-79
2022/02/21 07:47:12;;;;;;;5.35;0.82;;;;;;;9.77;100.00;97956.91;5109027;28;20054;-79
2022/02/21 07:50:17;;;;;;;0.68;0.63;;;;;;;9.78;100.00;97980.66;5108476;28;20854;-79
2022/02/21 07:53:24;;;;;;;0.28;0.28;;;;;;;9.70;100.00;97990.81;5109058;28;20051;-79
2022/02/21 07:56:27;;;;;;;1.25;0.50;;;;;;;9.70;100.00;97990.81;5108860;28;20058;-78
2022/02/21 07:59:31;;;;;;;0.10;0.10;;;;;;;9.63;100.00;97991.38;5109279;28;20396;-78
2022/02/21 08:02:36;;;;;;;20.38;2.30;;;;;;;9.62;100.00;98084.34;5087664;28;20051;-79
2022/02/21 08:05:40;;;;;;;9.68;0.98;;;;;;;9.63;100.00;98024.72;5088023;28;20615;-79
2022/02/21 08:08:43;;;;;;;0.25;0.25;;;;;;;9.71;100.00;98059.03;5088572;28;20398;-78
2022/02/21 08:11:47;;;;;;;0.10;0.10;;;;;;;9.70;100.00;98052.72;5088191;28;20075;-79
2022/02/21 08:14:51;;;;;;;1.95;0.70;;;;;;;9.72;100.00;98066.13;5088378;28;20047;-78
2022/02/21 08:17:55;;;;;;;7.68;0.88;;;;;;;9.75;100.00;98065.06;5100863;28;20054;-79
2022/02/21 08:20:59;;;;;;;13.63;0.82;;;;;;;9.92;100.00;98113.00;5109729;28;20042;-79
2022/02/21 08:24:02;;;;;;;7.22;0.60;;;;;;;10.06;100.00;98111.94;5111334;28;20055;-78
2022/02/21 08:27:06;;;;;;;0.85;0.73;;;;;;;10.22;100.00;98132.59;5111591;28;20055;-78
2022/02/21 08:30:16;;;;;;;0.75;0.57;;;;;;;10.21;100.00;98140.19;5112160;28;20065;-78
2022/02/21 08:33:20;;;;;;;15.98;1.00;;;;;;;10.35;100.00;98180.81;5071551;28;20067;-79
2022/02/21 08:36:24;;;;;;;3.92;1.50;;;;;;;10.38;100.00;98218.75;5073333;28;20087;-79
2022/02/21 08:39:27;;;;;;;2.30;1.00;;;;;;;10.32;100.00;98209.69;5108769;28;20508;-79
2022/02/21 08:42:30;;;;;;;1.58;0.75;;;;;;;10.14;100.00;98220.63;5090576;28;20051;-78
2022/02/21 08:45:34;;;;;;;1.17;1.08;;;;;;;10.01;100.00;98253.78;5091873;28;20051;-79
2022/02/21 08:48:37;;;;;;;8.50;0.73;;;;;;;9.96;100.00;98291.47;5090517;28;20051;-79
2022/02/21 08:51:41;;;;;;;4.88;0.60;;;;;;;9.76;100.00;98250.06;5091132;28;20051;-79
2022/02/21 08:54:44;;;;;;;2.28;1.00;;;;;;;9.70;100.00;98291.75;5090196;28;20051;-79
2022/02/21 08:57:48;;;;;;;1.38;1.15;;;;;;;9.67;100.00;98342.03;5103531;28;20046;-80
2022/02/21 09:00:51;;;;;;;1.67;0.95;;;;;;;9.71;100.00;98325.88;5105495;28;20508;-79
2022/02/21 09:03:54;;;;;;;0.77;0.77;;;;;;;9.81;100.00;98352.16;5090856;28;20047;-78
2022/02/21 09:06:58;;;;;;;8.00;1.10;;;;;;;9.87;100.00;98339.00;5096407;28;20511;-79
2022/02/21 09:10:02;;;;;;;0.40;0.30;;;;;;;9.83;100.00;98377.44;5111697;28;20070;-79
2022/02/21 09:13:05;;;;;;;1.13;0.40;;;;;;;9.75;100.00;98393.09;5111978;28;20070;-79
2022/02/21 09:16:09;;;;;;;1.73;0.60;;;;;;;9.87;100.00;98391.84;5110473;28;20047;-79
2022/02/21 09:19:12;;;;;;;7.80;1.00;;;;;;;9.80;100.00;98428.47;5110640;28;20515;-79
2022/02/21 09:22:16;;;;;;;11.65;1.13;;;;;;;9.82;100.00;98414.81;5111549;28;20047;-80
2022/02/21 09:25:19;;;;;;;7.63;0.85;;;;;;;9.75;100.00;98426.44;5110912;28;20055;-79
2022/02/21 09:28:23;;;;;;;5.07;1.40;;;;;;;9.71;100.00;98443.38;5110034;28;20488;-79
2022/02/21 09:31:26;;;;;;;6.82;1.17;;;;;;;9.68;100.00;98457.53;5099528;28;20051;-79
2022/02/21 09:34:29;;;;;;;11.38;1.10;;;;;;;9.75;100.00;98443.13;5090261;28;20059;-79
2022/02/21 09:37:35;;;;;;;1.73;0.70;;;;;;;9.86;100.00;98487.63;5099841;28;20055;-79
2022/02/21 09:40:41;;;;;;;1.60;0.55;;;;;;;10.00;100.00;98486.63;5095984;28;20504;-79
2022/02/21 09:43:45;;;;;;;0.68;0.68;;;;;;;10.07;100.00;98515.97;5089733;28;20414;-78
2022/02/21 09:46:49;;;;;;;8.88;1.02;;;;;;;9.94;100.00;98505.31;5089993;28;20059;-79
2022/02/21 09:49:55;;;;;;;7.53;1.42;;;;;;;9.91;100.00;98506.34;5082874;28;20512;-80
2022/02/21 09:53:04;;;;;;;19.70;1.58;;;;;;;9.92;100.00;98518.97;5069194;28;20540;-81
2022/02/21 09:56:08;;;;;;;1.40;1.38;;;;;;;9.81;100.00;98541.97;5073091;28;20391;-83
2022/02/21 09:59:11;;;;;;;6.72;2.08;;;;;;;9.78;100.00;98548.53;5071546;28;20051;-82
2022/02/21 10:02:23;;;;;;;5.07;1.05;;;;;;;9.79;100.00;98563.94;5070020;28;20509;-83
2022/02/21 10:05:26;;;;;;;11.05;0.90;;;;;;;9.79;100.00;98604.88;5081850;28;20047;-82
2022/02/21 10:15:33;;;;;;;2.80;0.93;;;;;;;9.59;100.00;98694.00;5123650;27;20776;-82
2022/02/21 10:18:39;;;;;;;23.45;1.23;;;;;;;10.13;100.00;98690.00;5107144;28;20075;-82
2022/02/21 10:22:05;;;;;;;1.75;0.52;;;;;;;10.37;100.00;98707.00;5105595;28;20047;-81
2022/02/21 10:25:19;;;;;;;1.00;0.82;;;;;;;10.47;100.00;98713.88;5086202;28;20051;-80
2022/02/21 10:28:44;;;;;;;4.18;0.75;;;;;;;10.60;100.00;98719.72;5086227;28;20067;-81
2022/02/21 10:31:47;;;;;;;2.20;0.60;;;;;;;10.64;100.00;98709.09;5086879;28;20051;-82
2022/02/21 10:34:53;;;;;;;8.02;0.52;;;;;;;10.73;100.00;98774.94;5085790;28;20075;-83
2022/02/21 10:37:59;;;;;;;3.30;2.15;;;;;;;10.77;100.00;98741.25;5077249;28;20048;-82
2022/02/21 10:41:08;;;;;;;1.50;0.82;;;;;;;10.79;100.00;98766.56;5065083;28;20123;-81
2022/02/21 10:44:35;;;;;;;11.90;1.08;;;;;;;10.88;100.00;98767.09;5065163;28;20406;-82
2022/02/21 10:47:40;;;;;;;9.68;1.48;;;;;;;11.09;100.00;98789.91;5076808;28;20055;-82
2022/02/21 10:51:01;;;;;;;2.65;0.20;;;;;;;11.07;100.00;98803.59;5086358;28;20043;-81
2022/02/21 10:54:09;;;;;;;1.58;0.73;;;;;;;10.99;100.00;98813.72;5085848;28;20052;-82
2022/02/21 10:57:14;;;;;;;0.63;0.60;;;;;;;11.03;100.00;98842.09;5084729;28;20500;-82
2022/02/21 11:00:18;;;;;;;4.63;0.35;;;;;;;10.88;100.00;98858.25;5083954;28;20158;-83
2022/02/21 11:03:26;;;;;;;14.00;1.05;;;;;;;10.65;100.00;98863.72;5084401;28;20060;-84
2022/02/21 11:06:30;;;;;;;3.20;1.02;;;;;;;10.62;100.00;98886.25;5084218;28;20058;-82
2022/02/21 11:09:37;;;;;;;6.95;2.00;;;;;;;10.74;100.00;98873.16;5084802;28;20047;-83
2022/02/21 11:12:44;;;;;;;6.75;1.60;;;;;;;10.88;100.00;98869.41;5084303;28;20051;-83
2022/02/21 11:15:48;;;;;;;0.85;0.55;;;;;;;11.03;100.00;98875.53;5084402;28;20059;-83
2022/02/21 11:18:52;;;;;;;7.63;0.80;;;;;;;11.13;100.00;98901.91;5085387;28;20522;-82
2022/02/21 11:21:56;;;;;;;12.60;1.88;;;;;;;11.19;100.00;98883.16;5084949;28;20043;-83
2022/02/21 11:25:28;;;;;;;19.75;2.40;;;;;;;11.23;100.00;98905.97;5081595;28;20059;-83
2022/02/21 11:28:37;;;;;;;7.60;2.00;;;;;;;11.26;100.00;98933.59;5070160;28;20051;-83
2022/02/21 11:31:41;;;;;;;3.78;0.95;;;;;;;11.18;100.00;98934.59;5070991;28;20525;-83
2022/02/21 11:35:06;;;;;;;7.63;1.65;;;;;;;11.03;100.00;98957.09;5071300;28;20102;-83
2022/02/21 11:38:12;;;;;;;4.13;0.82;;;;;;;10.98;100.00;98971.75;5071942;28;20048;-84
2022/02/21 11:41:16;;;;;;;2.97;1.50;;;;;;;11.03;100.00;98981.38;5070739;28;20406;-84
2022/02/21 11:44:22;;;;;;;2.65;1.00;;;;;;;11.29;100.00;98984.78;5070760;28;20055;-84
2022/02/21 11:47:46;;;;;;;2.85;1.02;;;;;;;11.50;100.00;99002.84;5071317;28;20682;-84
2022/02/21 11:50:57;;;;;;;1.27;1.17;;;;;;;11.63;100.00;99017.06;5071659;28;20414;-85
2022/02/21 11:54:13;;;;;;;0.73;0.52;;;;;;;11.66;100.00;99038.41;5069991;28;20063;-83
2022/02/21 11:57:17;;;;;;;12.10;0.77;;;;;;;11.75;100.00;99040.22;5070404;28;20051;-84
2022/02/21 12:00:32;;;;;;;4.22;0.60;;;;;;;11.68;100.00;99052.63;5070631;28;20048;-83
2022/02/21 12:03:36;;;;;;;1.45;0.50;;;;;;;11.72;100.00;99053.16;5070760;28;20052;-85
2022/02/21 12:06:50;;;;;;;1.25;0.40;;;;;;;11.73;100.00;99074.22;5070054;28;20059;-82
2022/02/21 12:10:21;;;;;;;4.40;0.88;;;;;;;11.77;100.00;99074.72;5070343;28;20525;-84
2022/02/21 12:13:25;;;;;;;0.63;0.50;;;;;;;11.80;100.00;99082.06;5071051;28;20071;-85
2022/02/21 12:16:30;;;;;;;3.58;0.80;;;;;;;11.88;100.00;99097.06;5070313;28;20414;-86
2022/02/21 12:19:36;;;;;;;8.15;0.93;;;;;;;11.83;100.00;99097.03;5070919;28;20052;-85
2022/02/21 12:23:05;;;;;;;0.30;0.30;;;;;;;11.81;100.00;99119.88;5070441;28;20501;-83
2022/02/21 12:26:08;;;;;;;6.30;1.40;;;;;;;11.68;100.00;99147.47;5071167;28;20063;-83
2022/02/21 12:29:19;;;;;;;12.68;2.08;;;;;;;11.61;100.00;99161.84;5056413;28;20063;-78
2022/02/21 12:32:29;;;;;;;3.10;1.55;;;;;;;11.57;100.00;99152.94;5080963;28;20500;-78
2022/02/21 12:36:00;;;;;;;5.25;0.93;;;;;;;11.39;100.00;99187.56;5080667;28;20055;-79
2022/02/21 12:39:06;;;;;;;13.95;1.60;;;;;;;11.31;100.00;99186.50;5069583;28;20051;-79
2022/02/21 12:42:10;;;;;;;1.08;0.85;;;;;;;11.20;100.00;99196.81;5069223;28;20047;-79
2022/02/21 12:45:19;;;;;;;3.70;0.50;;;;;;;11.03;100.00;99212.63;5080801;28;20402;-79
2022/02/21 12:48:23;;;;;;;20.83;2.25;;;;;;;10.94;100.00;99224.72;5069812;28;20055;-79
2022/02/21 12:51:33;;;;;;;3.70;1.10;;;;;;;10.81;100.00;99237.50;5069512;28;20067;-78
2022/02/21 12:54:37;;;;;;;0.30;0.20;;;;;;;10.66;100.00;99243.97;5068791;28;20056;-80
2022/02/21 12:57:41;;;;;;;8.45;1.33;;;;;;;10.61;100.00;99246.69;5069228;28;20410;-80
2022/02/21 13:00:44;;;;;;;6.60;1.23;;;;;;;10.65;100.00;99275.84;5069949;28;20063;-80
2022/02/21 13:03:55;;;;;;;10.75;2.00;;;;;;;10.65;100.00;99273.03;5068750;28;20052;-80
2022/02/21 13:07:01;;;;;;;3.53;0.47;;;;;;;10.65;100.00;99275.84;5069311;28;20457;-80
2022/02/21 13:10:08;;;;;;;0.35;0.20;;;;;;;10.65;100.00;99281.41;5069558;28;20406;-80
2022/02/21 13:13:20;;;;;;;1.42;0.90;;;;;;;10.59;100.00;99272.22;5069383;28;20067;-81
2022/02/21 13:16:25;;;;;;;8.73;2.03;;;;;;;10.55;100.00;99284.84;5068667;28;20051;-80
2022/02/21 13:19:34;;;;;;;4.35;1.85;;;;;;;10.58;100.00;99301.34;5068237;28;20130;-80
2022/02/21 13:22:39;;;;;;;2.50;0.47;;;;;;;10.70;100.00;99304.25;5068589;28;20517;-80
2022/02/21 13:25:43;;;;;;;2.15;0.55;;;;;;;10.66;100.00;99299.66;5069082;28;20406;-81
2022/02/21 13:28:48;;;;;;;5.45;1.00;;;;;;;10.74;100.00;99299.22;5069965;28;20043;-81
2022/02/21 13:31:53;;;;;;;4.32;0.95;;;;;;;10.81;100.00;99309.91;5071129;28;20054;-83
2022/02/21 13:35:03;;;;;;;1.75;0.77;;;;;;;10.80;100.00;99325.88;5067525;28;20044;-80
2022/02/21 13:38:07;;;;;;;0.57;0.57;;;;;;;10.91;100.00;99319.66;5069254;28;20505;-83
2022/02/21 13:41:10;;;;;;;0.75;0.50;;;;;;;10.91;100.00;99308.53;5075609;28;20048;-83
2022/02/21 13:44:24;;;;;;;1.27;0.52;;;;;;;11.03;100.00;99322.06;5066268;28;20052;-81
2022/02/21 13:47:29;;;;;;;1.20;0.65;;;;;;;11.09;100.00;99338.84;5070086;28;20051;-83
2022/02/21 13:51:00;;;;;;;3.88;1.92;;;;;;;11.17;100.00;99339.94;5068271;28;20047;-82
2022/02/21 13:54:29;;;;;;;10.25;2.17;;;;;;;11.18;100.00;99338.69;5048406;28;20430;-82
2022/02/21 13:57:33;;;;;;;4.68;0.57;;;;;;;11.22;100.00;99372.66;5057779;28;20055;-81
2022/02/21 14:00:47;;;;;;;5.05;1.48;;;;;;;11.22;100.00;99378.25;5067373;28;20044;-83
2022/02/21 14:03:59;;;;;;;3.80;0.60;;;;;;;11.21;100.00;99376.72;5068600;28;20398;-82
2022/02/21 14:07:06;;;;;;;2.13;1.33;;;;;;;11.22;100.00;99394.97;5067861;28;20051;-83
2022/02/21 14:10:14;;;;;;;3.70;0.95;;;;;;;11.31;100.00;99397.59;5065845;28;20051;-84
2022/02/21 14:13:18;;;;;;;0.65;0.65;;;;;;;11.28;100.00;99406.97;5070028;28;20704;-84
2022/02/21 14:16:22;;;;;;;3.28;0.25;;;;;;;11.28;100.00;99406.97;5068924;28;20059;-82
2022/02/21 14:19:26;;;;;;;10.43;0.95;;;;;;;11.34;100.00;99424.50;5067729;28;20071;-81
2022/02/21 14:22:31;;;;;;;1.30;0.57;;;;;;;11.50;100.00;99423.88;5067169;28;20067;-81
2022/02/21 14:25:35;;;;;;;5.40;1.55;;;;;;;11.53;100.00;99433.28;5072843;28;20059;-78
2022/02/21 14:28:39;;;;;;;5.53;0.75;;;;;;;11.56;100.00;99441.47;5067099;28;20056;-80
2022/02/21 14:31:42;;;;;;;0.85;0.73;;;;;;;11.56;100.00;99460.22;5069031;28;20052;-79
2022/02/21 14:34:48;;;;;;;0.20;0.20;;;;;;;11.63;100.00;99446.56;5068569;28;20414;-79